Time;durP1;ratioP1;P1;durP2;ratioP2;P2;SDS_P1;SDS_P2;PMS_P1;PMS_P2;Temp;Humidity;BMP_temperature;BMP_pressure;BME280_temperature;BME280_humidity;BME280_pressure;Samples;Min_cycle;Max_cycle;Signal;HPM_P1;HPM_P2
2021/09/06 00:00:51;;;;;;;0.40;0.30;;;;;;;11.64;60.00;101567.16;111993;1205;137114;-77
2021/09/06 00:03:18;;;;;;;0.40;0.30;;;;;;;11.60;59.98;101571.48;112323;1203;94080;-77
2021/09/06 00:05:44;;;;;;;0.40;0.40;;;;;;;11.51;60.21;101570.52;112210;1199;94462;-78
2021/09/06 00:08:11;;;;;;;0.40;0.40;;;;;;;11.51;60.33;101573.18;112321;1206;136615;-76
2021/09/06 00:10:43;;;;;;;0.40;0.30;;;;;;;11.55;60.24;101567.98;112316;1200;93919;-77
2021/09/06 00:13:13;;;;;;;0.40;0.30;;;;;;;11.49;60.07;101571.77;113764;1197;137138;-77
2021/09/06 00:15:40;;;;;;;0.40;0.40;;;;;;;11.49;59.83;101569.64;113753;1196;110313;-77
2021/09/06 00:18:07;;;;;;;0.40;0.30;;;;;;;11.55;59.93;101570.12;113601;1197;138354;-77
2021/09/06 00:20:36;;;;;;;0.40;0.30;;;;;;;11.55;59.81;101573.49;113775;1197;92476;-77
2021/09/06 00:23:04;;;;;;;0.40;0.30;;;;;;;11.61;59.74;101572.19;112647;1200;94372;-77
2021/09/06 00:25:30;;;;;;;0.40;0.30;;;;;;;11.57;59.66;101569.73;112168;1204;137717;-79
2021/09/06 00:27:57;;;;;;;0.40;0.40;;;;;;;11.51;59.67;101571.23;112357;1199;93877;-79
2021/09/06 00:30:24;;;;;;;0.40;0.30;;;;;;;11.46;59.77;101569.85;112285;1205;137615;-79
2021/09/06 00:32:51;;;;;;;0.40;0.30;;;;;;;11.42;59.78;101572.58;112449;1199;94444;-78
2021/09/06 00:35:17;;;;;;;0.40;0.30;;;;;;;11.38;59.96;101570.48;112370;1197;93990;-78
2021/09/06 00:37:44;;;;;;;0.40;0.30;;;;;;;11.38;59.97;101575.29;112384;1197;137393;-79
2021/09/06 00:40:12;;;;;;;0.40;0.30;;;;;;;11.41;60.15;101572.41;112321;1196;108433;-78
2021/09/06 00:42:38;;;;;;;0.40;0.40;;;;;;;11.40;60.11;101574.02;112676;1199;137819;-78
2021/09/06 00:45:05;;;;;;;0.40;0.30;;;;;;;11.32;60.17;101572.85;112448;1198;95233;-77
2021/09/06 00:47:35;;;;;;;0.40;0.40;;;;;;;11.29;60.16;101570.21;112253;1198;94313;-79
2021/09/06 00:50:06;;;;;;;0.40;0.40;;;;;;;11.22;60.29;101572.77;112241;1198;138825;-78
2021/09/06 00:52:34;;;;;;;0.40;0.30;;;;;;;11.25;60.26;101574.17;112383;1197;93951;-78
2021/09/06 00:55:01;;;;;;;0.40;0.30;;;;;;;11.28;60.24;101574.31;112227;1200;137136;-77
2021/09/06 00:57:28;;;;;;;0.50;0.40;;;;;;;11.30;60.18;101573.77;112388;1198;108569;-78
2021/09/06 00:59:55;;;;;;;0.40;0.40;;;;;;;11.23;60.41;101574.20;112328;1200;93981;-77
2021/09/06 01:05:20;;;;;;;0.40;0.30;;;;;;;11.04;60.95;101577.76;111914;1202;94000;-77
2021/09/06 01:07:47;;;;;;;0.40;0.40;;;;;;;10.94;61.24;101581.94;111858;1202;137830;-76
2021/09/06 01:10:14;;;;;;;0.40;0.40;;;;;;;10.87;61.48;101578.06;111885;1209;93882;-76
2021/09/06 01:12:42;;;;;;;0.40;0.40;;;;;;;11.01;61.13;101579.92;111889;1202;138784;-76
2021/09/06 01:15:10;;;;;;;0.40;0.30;;;;;;;11.10;60.76;101580.36;112015;1202;94528;-76
2021/09/06 01:17:37;;;;;;;0.40;0.30;;;;;;;10.99;61.06;101581.52;112030;1201;94577;-76
2021/09/06 01:20:05;;;;;;;0.40;0.40;;;;;;;10.87;61.38;101581.45;111911;1202;137200;-77
2021/09/06 01:22:32;;;;;;;0.40;0.40;;;;;;;10.83;61.64;101579.36;113447;1202;91900;-76
2021/09/06 01:24:59;;;;;;;0.40;0.30;;;;;;;10.86;61.71;101581.28;113359;1202;137783;-76
2021/09/06 01:27:25;;;;;;;0.40;0.30;;;;;;;10.88;61.46;101581.98;113132;1202;92355;-76
2021/09/06 01:29:52;;;;;;;0.40;0.30;;;;;;;10.90;61.31;101578.77;112010;1209;93845;-76
2021/09/06 01:32:19;;;;;;;0.50;0.40;;;;;;;10.83;61.31;101579.70;111956;1202;138008;-75
2021/09/06 01:34:45;;;;;;;0.40;0.30;;;;;;;10.88;61.33;101580.91;112170;1208;94468;-76
2021/09/06 01:37:12;;;;;;;0.40;0.30;;;;;;;10.96;61.15;101576.94;111937;1201;137546;-77
2021/09/06 01:39:39;;;;;;;0.40;0.30;;;;;;;10.99;60.82;101576.02;111994;1209;96206;-76
2021/09/06 01:42:06;;;;;;;0.40;0.40;;;;;;;10.92;61.10;101576.08;111868;1208;137804;-76
2021/09/06 01:44:33;;;;;;;0.40;0.40;;;;;;;10.93;61.19;101576.27;111957;1202;93877;-76
2021/09/06 01:47:00;;;;;;;0.40;0.30;;;;;;;10.96;61.23;101579.06;112097;1201;93850;-76
2021/09/06 01:49:26;;;;;;;0.40;0.30;;;;;;;10.93;61.15;101577.31;112062;1202;137136;-76
2021/09/06 01:51:53;;;;;;;0.50;0.40;;;;;;;10.89;61.04;101577.35;112139;1201;94135;-75
2021/09/06 01:54:20;;;;;;;0.50;0.40;;;;;;;10.88;60.77;101578.41;111920;1202;137711;-76
2021/09/06 01:56:46;;;;;;;0.40;0.30;;;;;;;10.88;60.94;101575.58;112065;1202;94564;-76
2021/09/06 01:59:13;;;;;;;0.40;0.30;;;;;;;10.84;60.93;101575.97;112043;1209;93905;-76
2021/09/06 02:01:40;;;;;;;0.40;0.40;;;;;;;10.80;61.06;101577.25;111919;1201;137227;-78
2021/09/06 02:04:07;;;;;;;0.40;0.40;;;;;;;10.75;61.29;101576.23;112033;1202;93902;-76
2021/09/06 02:06:33;;;;;;;0.40;0.40;;;;;;;10.73;61.42;101576.59;112027;1202;138132;-75
2021/09/06 02:09:00;;;;;;;0.40;0.30;;;;;;;10.77;61.36;101578.88;112022;1209;93971;-76
2021/09/06 02:11:27;;;;;;;0.40;0.30;;;;;;;10.75;61.43;101580.48;112049;1209;93887;-76
2021/09/06 02:13:53;;;;;;;0.40;0.40;;;;;;;10.74;61.53;101579.44;111876;1202;137341;-76
2021/09/06 02:16:20;;;;;;;0.50;0.40;;;;;;;10.64;61.73;101585.02;112037;1209;94711;-76
2021/09/06 02:18:48;;;;;;;0.40;0.30;;;;;;;10.65;61.78;101581.10;111990;1202;137617;-76
2021/09/06 02:21:15;;;;;;;0.40;0.30;;;;;;;10.66;61.72;101583.23;112080;1206;95826;-79
2021/09/06 02:23:41;;;;;;;0.50;0.40;;;;;;;10.69;61.58;101580.01;112177;1208;93954;-78
2021/09/06 02:26:08;;;;;;;0.40;0.40;;;;;;;10.71;61.44;101579.98;111939;1209;137978;-76
2021/09/06 02:28:35;;;;;;;0.50;0.50;;;;;;;10.71;61.44;101580.52;112065;1202;93901;-76
2021/09/06 02:31:02;;;;;;;0.40;0.30;;;;;;;10.75;61.33;101577.46;112039;1202;137750;-76
2021/09/06 02:33:29;;;;;;;0.40;0.30;;;;;;;10.75;61.32;101581.19;112014;1202;94497;-77
2021/09/06 02:35:55;;;;;;;0.40;0.40;;;;;;;10.76;61.22;101577.65;112083;1209;94439;-77
2021/09/06 02:38:22;;;;;;;0.50;0.40;;;;;;;10.76;61.15;101576.21;111943;1202;138042;-76
2021/09/06 02:40:49;;;;;;;0.40;0.40;;;;;;;10.76;61.24;101579.05;112169;1202;94412;-76
2021/09/06 02:43:15;;;;;;;0.40;0.40;;;;;;;10.77;61.13;101579.41;111907;1202;137348;-77
2021/09/06 02:45:42;;;;;;;0.40;0.40;;;;;;;10.74;61.26;101576.59;112173;1202;93970;-76
2021/09/06 02:48:09;;;;;;;0.50;0.40;;;;;;;10.62;61.57;101579.34;111877;1202;137738;-77
2021/09/06 02:50:35;;;;;;;0.50;0.40;;;;;;;10.57;61.70;101576.90;112076;1202;94255;-76
2021/09/06 02:53:02;;;;;;;0.40;0.40;;;;;;;10.54;61.66;101583.30;112108;1203;93912;-76
2021/09/06 02:55:29;;;;;;;0.40;0.40;;;;;;;10.48;61.62;101580.33;111943;1202;137042;-76
2021/09/06 02:57:55;;;;;;;0.40;0.40;;;;;;;10.40;61.58;101578.62;112088;1202;94380;-77
2021/09/06 03:00:25;;;;;;;0.50;0.40;;;;;;;10.45;61.92;101579.98;111973;1202;138619;-76
2021/09/06 03:02:52;;;;;;;0.50;0.40;;;;;;;10.47;61.76;101577.14;112022;1202;108091;-76
2021/09/06 03:05:19;;;;;;;0.40;0.40;;;;;;;10.37;61.95;101577.20;112098;1203;94034;-78
2021/09/06 03:07:46;;;;;;;0.50;0.40;;;;;;;10.33;61.93;101576.86;111910;1201;137279;-76
2021/09/06 03:10:12;;;;;;;0.50;0.50;;;;;;;10.33;61.84;101577.73;112107;1203;93897;-75
2021/09/06 03:12:39;;;;;;;0.50;0.40;;;;;;;10.43;61.81;101575.58;111887;1202;138015;-76
2021/09/06 03:15:06;;;;;;;0.50;0.50;;;;;;;10.48;61.54;101575.54;112178;1202;94035;-77
2021/09/06 03:17:34;;;;;;;0.40;0.40;;;;;;;10.48;61.23;101570.94;111987;1202;93965;-77
2021/09/06 03:20:01;;;;;;;0.50;0.50;;;;;;;10.35;61.77;101570.11;111980;1202;137418;-78
2021/09/06 03:22:27;;;;;;;0.40;0.40;;;;;;;10.23;62.10;101568.39;112107;1202;93850;-75
2021/09/06 03:24:54;;;;;;;0.50;0.40;;;;;;;10.22;62.09;101561.48;111944;1202;137960;-76
2021/09/06 03:27:21;;;;;;;0.40;0.40;;;;;;;10.21;62.19;101561.29;111994;1202;94482;-77
2021/09/06 03:29:47;;;;;;;0.40;0.40;;;;;;;10.16;62.32;101562.04;112077;1208;94086;-76
2021/09/06 03:32:14;;;;;;;0.50;0.40;;;;;;;10.22;61.99;101556.51;111826;1199;137849;-77
2021/09/06 03:34:41;;;;;;;0.40;0.40;;;;;;;10.29;61.85;101560.19;112058;1202;94072;-77
2021/09/06 03:37:07;;;;;;;0.40;0.40;;;;;;;10.28;61.72;101561.60;112008;1202;138929;-76
2021/09/06 03:39:34;;;;;;;0.40;0.40;;;;;;;10.22;61.82;101562.18;112136;1202;93834;-77
2021/09/06 03:42:01;;;;;;;0.40;0.40;;;;;;;10.15;62.03;101560.80;112086;1202;93920;-77
2021/09/06 03:44:27;;;;;;;0.40;0.30;;;;;;;10.05;62.28;101556.95;111938;1202;138836;-77
2021/09/06 03:46:54;;;;;;;0.40;0.40;;;;;;;10.00;62.43;101556.45;112038;1203;94026;-78
2021/09/06 03:49:21;;;;;;;0.40;0.40;;;;;;;9.96;62.49;101554.34;112048;1202;137039;-78
2021/09/06 03:51:48;;;;;;;0.50;0.50;;;;;;;9.91;62.72;101553.48;111998;1202;93873;-77
2021/09/06 03:54:14;;;;;;;0.40;0.40;;;;;;;9.85;62.91;101555.46;111981;1201;137731;-77
2021/09/06 03:56:41;;;;;;;0.40;0.40;;;;;;;9.89;62.77;101555.09;112118;1202;94435;-77
2021/09/06 03:59:08;;;;;;;0.40;0.40;;;;;;;10.01;62.49;101555.39;112058;1202;94028;-76
2021/09/06 04:01:34;;;;;;;0.50;0.50;;;;;;;9.98;62.21;101560.54;111944;1202;137878;-76
2021/09/06 04:04:02;;;;;;;0.50;0.40;;;;;;;9.97;62.15;101557.00;112149;1202;94133;-77
2021/09/06 04:06:29;;;;;;;0.40;0.40;;;;;;;10.04;62.21;101556.08;112005;1208;137811;-77
2021/09/06 04:08:55;;;;;;;0.40;0.40;;;;;;;10.10;62.29;101556.21;112102;1203;109564;-77
2021/09/06 04:11:22;;;;;;;0.40;0.30;;;;;;;10.13;62.07;101554.43;111997;1202;94007;-79
2021/09/06 04:13:49;;;;;;;0.50;0.40;;;;;;;10.10;62.00;101556.58;111962;1202;137829;-76
2021/09/06 04:16:16;;;;;;;0.50;0.40;;;;;;;10.09;62.34;101557.48;112097;1202;94413;-76
2021/09/06 04:18:42;;;;;;;0.40;0.40;;;;;;;10.13;62.18;101562.23;111912;1202;138261;-77
2021/09/06 04:21:09;;;;;;;0.50;0.40;;;;;;;10.19;62.32;101561.50;112029;1209;94705;-76
2021/09/06 04:23:36;;;;;;;0.50;0.50;;;;;;;10.11;62.53;101562.08;112049;1201;107788;-76
2021/09/06 04:26:03;;;;;;;0.40;0.40;;;;;;;10.08;62.52;101563.86;111811;1209;137729;-76
2021/09/06 04:28:30;;;;;;;0.40;0.40;;;;;;;10.14;62.49;101567.20;111975;1202;93856;-76
2021/09/06 04:30:57;;;;;;;0.40;0.40;;;;;;;10.24;62.36;101571.77;111913;1203;137596;-78
2021/09/06 04:33:24;;;;;;;0.40;0.40;;;;;;;10.25;62.45;101570.34;112058;1203;93939;-77
2021/09/06 04:35:52;;;;;;;0.50;0.40;;;;;;;10.18;62.69;101573.92;111988;1202;94190;-76
2021/09/06 04:38:19;;;;;;;0.40;0.40;;;;;;;10.20;62.71;101576.55;113376;1201;137869;-77
2021/09/06 04:40:45;;;;;;;0.40;0.30;;;;;;;10.25;62.78;101569.44;113400;1202;92222;-77
2021/09/06 04:43:12;;;;;;;0.40;0.40;;;;;;;10.20;62.71;101572.84;112161;1201;137057;-76
2021/09/06 04:45:39;;;;;;;0.40;0.40;;;;;;;10.22;62.84;101571.23;112028;1202;93916;-77
2021/09/06 04:48:06;;;;;;;0.40;0.40;;;;;;;10.31;62.75;101571.70;112031;1202;93831;-77
2021/09/06 04:50:33;;;;;;;0.50;0.50;;;;;;;10.43;62.58;101575.23;111855;1201;137224;-76
2021/09/06 04:53:00;;;;;;;0.40;0.30;;;;;;;10.51;62.60;101580.13;111858;1203;93937;-75
2021/09/06 04:55:26;;;;;;;0.40;0.40;;;;;;;10.51;62.91;101580.14;111761;1202;137618;-78
2021/09/06 04:57:53;;;;;;;0.50;0.40;;;;;;;10.57;62.73;101585.42;111969;1208;94417;-76
2021/09/06 05:00:20;;;;;;;0.40;0.30;;;;;;;10.67;62.64;101586.40;111910;1202;138228;-76
2021/09/06 05:02:46;;;;;;;0.40;0.40;;;;;;;10.74;62.65;101586.88;111966;1203;94429;-77
2021/09/06 05:05:14;;;;;;;0.40;0.30;;;;;;;10.84;62.45;101586.63;112011;1202;110022;-76
2021/09/06 05:07:40;;;;;;;0.40;0.40;;;;;;;10.87;62.65;101590.87;111883;1202;138251;-76
2021/09/06 05:10:08;;;;;;;0.50;0.30;;;;;;;10.98;62.94;101592.37;111997;1209;94067;-78
2021/09/06 05:12:34;;;;;;;0.40;0.30;;;;;;;11.08;62.77;101588.20;111950;1202;137509;-77
2021/09/06 05:15:01;;;;;;;0.40;0.30;;;;;;;11.10;62.71;101590.31;111957;1202;93892;-77
2021/09/06 05:17:28;;;;;;;0.40;0.30;;;;;;;11.12;63.09;101591.36;111811;1202;93890;-75
2021/09/06 05:19:55;;;;;;;0.40;0.30;;;;;;;11.14;63.35;101589.92;111856;1202;137967;-75
2021/09/06 05:22:23;;;;;;;0.40;0.40;;;;;;;11.23;63.28;101589.83;112022;1202;94551;-75
2021/09/06 05:24:54;;;;;;;0.40;0.30;;;;;;;11.36;62.70;101588.10;111868;1202;137280;-76
2021/09/06 05:27:21;;;;;;;0.40;0.30;;;;;;;11.45;62.55;101585.52;112012;1202;109930;-75
2021/09/06 05:29:48;;;;;;;0.40;0.40;;;;;;;11.42;62.74;101588.39;111920;1202;108046;-75
2021/09/06 05:32:15;;;;;;;0.40;0.30;;;;;;;11.47;62.59;101587.45;111814;1202;138030;-76
2021/09/06 05:34:41;;;;;;;0.40;0.30;;;;;;;11.59;62.34;101587.14;111989;1202;95407;-76
2021/09/06 05:37:08;;;;;;;0.40;0.30;;;;;;;11.57;60.97;101588.41;111852;1206;137217;-76
2021/09/06 05:39:35;;;;;;;0.40;0.30;;;;;;;11.51;60.77;101584.91;111904;1204;94106;-77
2021/09/06 05:42:02;;;;;;;0.40;0.30;;;;;;;11.51;61.25;101587.77;112063;1202;93944;-75
2021/09/06 05:44:29;;;;;;;0.40;0.30;;;;;;;11.54;60.71;101589.86;111962;1201;138431;-75
2021/09/06 05:46:56;;;;;;;0.40;0.30;;;;;;;11.51;59.77;101589.71;112080;1209;94017;-76
2021/09/06 05:49:23;;;;;;;0.40;0.30;;;;;;;11.48;59.44;101591.71;111924;1202;137519;-76
2021/09/06 05:51:49;;;;;;;0.40;0.30;;;;;;;11.47;59.90;101588.17;111959;1202;93865;-76
2021/09/06 05:54:16;;;;;;;0.40;0.30;;;;;;;11.54;60.31;101589.15;111947;1202;137387;-77
2021/09/06 05:56:43;;;;;;;0.40;0.30;;;;;;;11.69;60.57;101590.59;112126;1202;94451;-76
2021/09/06 05:59:10;;;;;;;0.40;0.30;;;;;;;11.93;60.16;101596.71;112061;1202;93883;-75
2021/09/06 06:01:38;;;;;;;0.40;0.30;;;;;;;12.03;59.47;101597.49;111883;1203;137676;-78
2021/09/06 06:04:05;;;;;;;0.40;0.30;;;;;;;12.02;59.18;101601.96;111989;1201;106133;-77
2021/09/06 06:06:32;;;;;;;0.40;0.30;;;;;;;11.98;59.01;101606.27;112010;1209;137811;-77
2021/09/06 06:08:58;;;;;;;0.40;0.30;;;;;;;12.03;58.58;101608.17;112109;1202;95882;-76
2021/09/06 06:11:25;;;;;;;0.40;0.30;;;;;;;12.01;57.90;101605.35;112018;1208;94406;-76
2021/09/06 06:13:51;;;;;;;0.40;0.30;;;;;;;12.15;58.71;101612.83;111947;1203;138041;-77
2021/09/06 06:16:18;;;;;;;0.40;0.30;;;;;;;12.18;58.23;101610.30;112041;1202;108215;-76
2021/09/06 06:18:45;;;;;;;0.40;0.30;;;;;;;12.21;57.18;101608.64;111858;1202;137441;-77
2021/09/06 06:21:11;;;;;;;0.40;0.30;;;;;;;12.29;57.41;101611.39;112046;1203;93874;-76
2021/09/06 06:23:38;;;;;;;0.40;0.30;;;;;;;12.37;57.82;101607.89;111935;1205;93877;-78
2021/09/06 06:26:05;;;;;;;0.40;0.30;;;;;;;12.38;55.16;101613.21;111924;1209;137325;-76
2021/09/06 06:28:31;;;;;;;0.40;0.30;;;;;;;12.43;56.10;101616.53;111973;1202;108450;-75
2021/09/06 06:30:58;;;;;;;0.40;0.30;;;;;;;12.50;56.66;101618.77;111959;1204;137568;-76
2021/09/06 06:33:29;;;;;;;0.40;0.30;;;;;;;12.59;56.77;101616.84;112008;1202;94214;-77
2021/09/06 06:36:00;;;;;;;0.40;0.40;;;;;;;12.67;57.38;101620.27;111979;1202;108537;-75
2021/09/06 06:38:28;;;;;;;0.40;0.30;;;;;;;12.77;56.35;101624.77;112011;1202;138830;-76
2021/09/06 06:40:55;;;;;;;0.40;0.30;;;;;;;12.84;54.83;101625.89;111990;1202;93906;-77
2021/09/06 06:43:21;;;;;;;0.40;0.30;;;;;;;12.97;55.50;101625.52;111907;1202;137266;-75
2021/09/06 06:45:48;;;;;;;0.40;0.30;;;;;;;13.10;56.16;101627.26;112006;1203;94103;-76
2021/09/06 06:48:15;;;;;;;0.40;0.30;;;;;;;13.18;55.19;101624.44;111904;1202;137655;-76
2021/09/06 06:50:42;;;;;;;0.40;0.30;;;;;;;13.27;55.81;101625.89;112002;1202;93870;-76
2021/09/06 06:53:09;;;;;;;0.40;0.30;;;;;;;13.31;55.12;101625.65;112112;1209;93838;-77
2021/09/06 06:55:36;;;;;;;0.40;0.30;;;;;;;13.37;54.94;101626.61;111939;1202;137632;-77
2021/09/06 06:58:03;;;;;;;0.40;0.30;;;;;;;13.46;54.89;101631.28;112068;1209;107284;-75
2021/09/06 07:00:30;;;;;;;0.40;0.30;;;;;;;13.54;52.61;101625.27;111869;1202;138286;-76
2021/09/06 07:02:57;;;;;;;0.40;0.30;;;;;;;13.58;51.61;101628.40;111951;1203;94001;-77
2021/09/06 07:05:24;;;;;;;0.40;0.30;;;;;;;13.63;52.16;101626.15;112056;1201;95098;-76
2021/09/06 07:07:50;;;;;;;0.40;0.30;;;;;;;13.68;52.42;101629.98;111920;1209;137181;-75
2021/09/06 07:10:17;;;;;;;0.40;0.30;;;;;;;13.75;51.32;101633.77;111985;1209;94345;-75
2021/09/06 07:12:44;;;;;;;0.40;0.30;;;;;;;13.86;51.14;101635.70;111861;1202;137313;-77
2021/09/06 07:15:11;;;;;;;0.40;0.20;;;;;;;13.94;49.20;101635.90;111939;1209;94162;-76
2021/09/06 07:17:38;;;;;;;0.40;0.30;;;;;;;14.00;49.39;101640.59;111986;1202;94084;-77
2021/09/06 07:20:06;;;;;;;0.40;0.20;;;;;;;14.06;49.50;101639.57;111983;1209;137151;-77
2021/09/06 07:22:32;;;;;;;0.40;0.30;;;;;;;14.15;49.51;101640.82;112430;1201;93893;-76
2021/09/06 07:24:59;;;;;;;0.40;0.30;;;;;;;14.22;49.93;101643.53;112032;1202;137674;-77
2021/09/06 07:27:26;;;;;;;0.40;0.20;;;;;;;14.30;50.33;101643.70;111996;1202;93932;-75
2021/09/06 07:29:52;;;;;;;0.40;0.20;;;;;;;14.42;50.02;101643.09;111956;1202;93894;-82
2021/09/06 07:32:19;;;;;;;0.40;0.20;;;;;;;14.53;48.71;101647.32;111986;1201;137242;-77
2021/09/06 07:34:45;;;;;;;0.40;0.20;;;;;;;14.61;46.36;101648.58;112082;1209;108718;-77
2021/09/06 07:37:12;;;;;;;0.40;0.20;;;;;;;14.67;46.76;101648.08;111936;1209;137777;-76
2021/09/06 07:39:39;;;;;;;0.40;0.20;;;;;;;14.77;47.80;101646.97;112048;1202;93951;-77
2021/09/06 07:42:06;;;;;;;0.40;0.20;;;;;;;14.86;48.26;101643.16;112004;1209;94401;-77
2021/09/06 07:44:32;;;;;;;0.40;0.20;;;;;;;14.96;48.18;101643.65;111906;1202;136936;-77
2021/09/06 07:46:59;;;;;;;0.40;0.20;;;;;;;15.06;47.66;101645.73;112043;1205;94038;-76
2021/09/06 07:49:26;;;;;;;0.40;0.20;;;;;;;15.14;47.46;101646.95;111898;1202;137488;-77
2021/09/06 07:51:53;;;;;;;0.40;0.20;;;;;;;15.23;45.68;101651.20;112004;1203;93895;-78
2021/09/06 07:54:24;;;;;;;0.40;0.20;;;;;;;15.29;45.31;101645.48;111874;1202;137110;-76
2021/09/06 07:56:52;;;;;;;0.40;0.20;;;;;;;15.35;44.25;101645.35;112048;1202;108388;-77
2021/09/06 07:59:20;;;;;;;0.40;0.20;;;;;;;15.38;44.13;101644.54;111972;1209;93955;-77
2021/09/06 08:01:47;;;;;;;0.40;0.20;;;;;;;15.45;43.66;101646.16;112329;1201;137982;-76
2021/09/06 08:04:17;;;;;;;0.40;0.20;;;;;;;15.54;42.85;101644.13;112058;1203;108479;-78
2021/09/06 08:06:45;;;;;;;0.40;0.20;;;;;;;15.58;43.08;101634.54;111884;1202;137400;-77
2021/09/06 08:09:13;;;;;;;0.40;0.20;;;;;;;15.69;44.42;101639.05;112087;1203;93961;-77
2021/09/06 08:11:45;;;;;;;0.40;0.20;;;;;;;15.85;44.51;101637.39;112024;1209;93941;-78
2021/09/06 08:14:12;;;;;;;0.40;0.20;;;;;;;16.01;44.76;101638.90;112025;1202;138322;-76
2021/09/06 08:16:39;;;;;;;0.40;0.20;;;;;;;16.12;44.42;101641.83;112009;1202;93956;-75
2021/09/06 08:19:06;;;;;;;0.40;0.20;;;;;;;16.15;44.36;101638.33;111886;1209;139230;-77
2021/09/06 08:21:33;;;;;;;0.40;0.10;;;;;;;16.30;44.71;101631.79;111984;1203;93868;-78
2021/09/06 08:24:00;;;;;;;0.40;0.20;;;;;;;16.40;43.36;101634.70;112060;1202;93500;-78
2021/09/06 08:26:27;;;;;;;0.40;0.20;;;;;;;16.47;42.51;101638.61;111880;1209;138126;-77
2021/09/06 08:28:54;;;;;;;0.40;0.20;;;;;;;16.48;41.80;101647.36;112044;1202;93895;-77
2021/09/06 08:31:20;;;;;;;0.40;0.20;;;;;;;16.55;41.24;101647.88;112006;1202;137162;-78
2021/09/06 08:33:47;;;;;;;0.40;0.20;;;;;;;16.60;41.45;101643.25;112096;1209;93930;-76
2021/09/06 08:36:15;;;;;;;0.40;0.20;;;;;;;16.74;42.16;101640.83;111926;1202;137751;-76
2021/09/06 08:38:42;;;;;;;0.40;0.20;;;;;;;16.85;42.17;101642.95;112063;1202;94086;-77
2021/09/06 08:41:09;;;;;;;0.40;0.20;;;;;;;16.91;40.74;101643.71;111970;1209;93951;-77
2021/09/06 08:43:36;;;;;;;0.40;0.20;;;;;;;16.89;39.22;101644.65;111987;1204;138539;-76
2021/09/06 08:46:03;;;;;;;0.40;0.20;;;;;;;16.86;38.60;101642.56;112080;1202;93909;-76
2021/09/06 08:48:30;;;;;;;0.40;0.10;;;;;;;16.90;40.56;101641.73;111933;1209;136376;-77
2021/09/06 08:50:57;;;;;;;0.40;0.10;;;;;;;17.01;41.33;101641.05;111982;1209;94515;-75
2021/09/06 08:53:24;;;;;;;0.40;0.10;;;;;;;17.16;41.63;101638.23;112137;1202;94400;-77
2021/09/06 08:55:53;;;;;;;0.40;0.10;;;;;;;17.25;39.46;101641.85;111914;1209;137948;-76
2021/09/06 08:58:32;;;;;;;0.40;0.10;;;;;;;17.23;38.24;101639.77;112004;1205;108762;-75
2021/09/06 09:00:59;;;;;;;0.40;0.20;;;;;;;17.27;37.42;101642.16;112000;1208;138639;-75
2021/09/06 09:03:26;;;;;;;0.40;0.20;;;;;;;17.40;37.40;101641.14;111991;1203;93953;-76
2021/09/06 09:06:02;;;;;;;0.40;0.10;;;;;;;17.76;36.87;101635.41;112074;1202;94064;-75
2021/09/06 09:08:29;;;;;;;0.40;0.10;;;;;;;18.00;36.94;101636.33;111863;1204;137421;-76
2021/09/06 09:11:04;;;;;;;0.40;0.10;;;;;;;18.41;36.58;101636.54;111998;1209;108045;-76
2021/09/06 09:13:34;;;;;;;0.40;0.10;;;;;;;19.98;35.28;101640.21;111953;1202;139208;-77
2021/09/06 09:16:01;;;;;;;0.40;0.10;;;;;;;21.95;31.48;101637.67;112107;1209;94451;-77
2021/09/06 09:18:33;;;;;;;0.40;0.10;;;;;;;23.81;28.79;101635.27;111922;1209;138186;-77
2021/09/06 09:21:04;;;;;;;0.40;0.10;;;;;;;25.33;25.63;101634.66;112084;1205;108122;-77
2021/09/06 09:23:48;;;;;;;0.40;0.10;;;;;;;26.47;24.79;101626.98;111953;1203;94755;-76
2021/09/06 09:26:15;;;;;;;0.40;0.00;;;;;;;27.67;23.70;101627.14;111983;1202;138148;-77
2021/09/06 09:28:44;;;;;;;0.40;0.00;;;;;;;28.18;22.66;101627.54;112060;1202;94022;-79
2021/09/06 09:31:16;;;;;;;0.40;0.00;;;;;;;28.18;21.94;101626.29;111981;1209;137680;-77
2021/09/06 09:33:56;;;;;;;0.40;0.00;;;;;;;27.97;22.77;101626.11;112132;1201;93876;-76
2021/09/06 09:36:34;;;;;;;0.40;0.00;;;;;;;27.67;22.89;101628.68;111981;1209;137271;-77
2021/09/06 09:39:10;;;;;;;0.40;0.00;;;;;;;27.47;22.51;101626.61;112088;1203;109109;-77
2021/09/06 09:42:01;;;;;;;0.40;0.00;;;;;;;28.15;23.57;101621.41;112018;1209;108134;-76
2021/09/06 09:44:29;;;;;;;0.40;0.00;;;;;;;28.92;20.73;101616.29;111968;1208;137116;-78
2021/09/06 09:47:02;;;;;;;0.40;0.00;;;;;;;29.18;20.63;101616.14;112111;1202;93969;-78
2021/09/06 09:49:33;;;;;;;0.40;0.00;;;;;;;30.44;20.80;101608.65;112004;1203;137746;-78
2021/09/06 09:52:00;;;;;;;0.40;0.00;;;;;;;31.38;19.73;101608.44;112104;1209;99789;-76
2021/09/06 09:54:30;;;;;;;0.40;0.00;;;;;;;32.20;19.11;101608.80;112003;1202;136247;-78
2021/09/06 09:56:57;;;;;;;0.40;0.00;;;;;;;32.92;18.35;101603.75;112078;1202;94345;-77
2021/09/06 09:59:24;;;;;;;0.40;0.00;;;;;;;33.54;17.44;101598.70;112748;1202;94015;-77
2021/09/06 10:02:15;;;;;;;0.40;0.00;;;;;;;34.33;17.36;101593.19;111980;1209;138757;-77
2021/09/06 10:04:51;;;;;;;0.40;0.00;;;;;;;35.07;16.25;101592.10;112109;1209;94378;-77
2021/09/06 10:07:19;;;;;;;0.40;0.00;;;;;;;35.65;15.73;101586.65;111983;1209;137053;-77
2021/09/06 10:09:47;;;;;;;0.40;0.00;;;;;;;36.26;15.21;101584.31;112100;1205;100207;-78
2021/09/06 10:12:23;;;;;;;0.40;0.00;;;;;;;36.37;15.39;101587.93;111920;1205;137556;-78
2021/09/06 10:14:53;;;;;;;0.40;0.00;;;;;;;36.64;14.01;101585.77;112020;1205;93947;-79
2021/09/06 10:17:37;;;;;;;0.40;0.00;;;;;;;36.34;14.11;101589.67;112150;1209;94375;-78
2021/09/06 10:20:17;;;;;;;0.40;0.00;;;;;;;36.27;14.30;101591.34;111896;1203;137269;-77
2021/09/06 10:22:45;;;;;;;0.40;0.00;;;;;;;36.29;13.86;101584.16;112252;1209;108593;-79
2021/09/06 10:25:19;;;;;;;0.40;0.00;;;;;;;36.07;14.00;101586.27;112018;1203;138637;-78
2021/09/06 10:27:54;;;;;;;0.40;0.00;;;;;;;36.37;14.27;101583.78;112186;1202;93946;-77
2021/09/06 10:30:53;;;;;;;0.40;0.00;;;;;;;36.88;13.83;101574.30;112011;1209;138746;-77
2021/09/06 10:33:31;;;;;;;0.40;0.00;;;;;;;37.70;13.76;101571.27;112016;1209;99392;-78
2021/09/06 10:36:21;;;;;;;0.40;0.00;;;;;;;37.89;13.48;101568.15;112021;1202;95565;-77
2021/09/06 10:38:50;;;;;;;0.40;0.00;;;;;;;38.26;13.15;101565.40;111931;1206;137381;-75
2021/09/06 10:41:19;;;;;;;0.40;0.00;;;;;;;38.46;12.92;101567.08;112142;1204;108946;-77
2021/09/06 10:43:54;;;;;;;0.40;0.00;;;;;;;38.54;12.77;101563.73;111976;1209;137360;-78
2021/09/06 10:46:23;;;;;;;0.40;0.00;;;;;;;39.07;12.36;101561.70;112120;1202;93898;-78
2021/09/06 10:48:53;;;;;;;0.40;0.00;;;;;;;38.37;12.36;101557.95;111908;1209;137113;-77
2021/09/06 10:51:30;;;;;;;0.40;0.00;;;;;;;36.27;13.78;101563.84;112250;1205;98941;-77
2021/09/06 10:53:59;;;;;;;0.40;0.00;;;;;;;33.85;14.49;101564.88;112127;1202;101121;-76
2021/09/06 10:56:27;;;;;;;0.40;0.00;;;;;;;31.86;16.40;101562.86;111949;1206;137307;-78
2021/09/06 10:58:54;;;;;;;0.40;0.00;;;;;;;30.41;17.54;101562.24;112049;1206;94159;-80
2021/09/06 11:01:22;;;;;;;0.40;0.00;;;;;;;29.16;19.40;101562.71;111975;1209;138603;-77
2021/09/06 11:03:52;;;;;;;0.40;0.00;;;;;;;27.85;20.55;101562.10;112228;1202;108054;-78
2021/09/06 11:06:26;;;;;;;0.40;0.00;;;;;;;26.88;22.04;101566.93;112184;1202;94032;-77
2021/09/06 11:08:53;;;;;;;0.40;0.00;;;;;;;26.01;22.10;101562.82;111968;1202;136916;-78
2021/09/06 11:11:21;;;;;;;0.40;0.00;;;;;;;25.33;22.95;101560.54;112129;1201;94298;-78
2021/09/06 11:13:48;;;;;;;0.40;0.00;;;;;;;25.06;23.75;101555.33;112370;1202;137168;-78
2021/09/06 11:16:17;;;;;;;0.40;0.00;;;;;;;24.71;24.38;101556.41;112086;1210;93899;-76
2021/09/06 11:18:46;;;;;;;0.40;0.00;;;;;;;24.39;24.74;101553.92;112001;1208;137184;-77
2021/09/06 11:21:13;;;;;;;0.40;0.00;;;;;;;24.02;25.13;101553.13;112016;1209;108560;-77